sensor_id;sensor_type;location;lat;lon;timestamp;noise_LAeq;noise_LA_min;noise_LA_max;noise_LA01;noise_LA95
66399;Laerm;54877;51.504;3.894;2023-04-03T00:00:46;33.76;32.37;35.08;;
66399;Laerm;54877;51.504;3.894;2023-04-03T00:03:13;33.72;32.22;35.02;;
66399;Laerm;54877;51.504;3.894;2023-04-03T00:05:38;33.78;32.22;42.34;;
66399;Laerm;54877;51.504;3.894;2023-04-03T00:08:03;33.67;32.35;34.93;;
66399;Laerm;54877;51.504;3.894;2023-04-03T00:10:32;33.64;32.26;34.85;;
66399;Laerm;54877;51.504;3.894;2023-04-03T00:12:58;33.63;32.39;34.88;;
66399;Laerm;54877;51.504;3.894;2023-04-03T00:15:23;33.62;32.24;34.90;;
66399;Laerm;54877;51.504;3.894;2023-04-03T00:17:48;33.61;32.06;34.78;;
66399;Laerm;54877;51.504;3.894;2023-04-03T00:20:14;33.61;32.25;37.19;;
66399;Laerm;54877;51.504;3.894;2023-04-03T00:22:39;33.74;32.37;43.27;;
66399;Laerm;54877;51.504;3.894;2023-04-03T00:25:05;33.62;32.13;34.96;;
66399;Laerm;54877;51.504;3.894;2023-04-03T00:27:30;33.61;32.30;34.90;;
66399;Laerm;54877;51.504;3.894;2023-04-03T00:29:56;33.59;31.76;34.72;;
66399;Laerm;54877;51.504;3.894;2023-04-03T00:32:21;33.62;32.37;34.73;;
66399;Laerm;54877;51.504;3.894;2023-04-03T00:34:46;33.61;32.43;34.93;;
66399;Laerm;54877;51.504;3.894;2023-04-03T00:37:11;33.61;32.24;36.81;;
66399;Laerm;54877;51.504;3.894;2023-04-03T00:39:37;33.60;32.17;34.90;;
66399;Laerm;54877;51.504;3.894;2023-04-03T00:42:02;33.60;32.11;35.05;;
66399;Laerm;54877;51.504;3.894;2023-04-03T00:46:53;33.58;32.20;34.83;;
66399;Laerm;54877;51.504;3.894;2023-04-03T00:49:18;33.58;32.07;34.87;;
66399;Laerm;54877;51.504;3.894;2023-04-03T00:51:44;33.57;32.25;34.75;;
66399;Laerm;54877;51.504;3.894;2023-04-03T00:54:10;33.55;32.12;34.90;;
66399;Laerm;54877;51.504;3.894;2023-04-03T00:56:37;33.59;32.40;34.87;;
66399;Laerm;54877;51.504;3.894;2023-04-03T00:59:10;33.61;32.35;34.91;;
66399;Laerm;54877;51.504;3.894;2023-04-03T01:01:37;33.65;32.38;35.04;;
66399;Laerm;54877;51.504;3.894;2023-04-03T01:04:03;33.64;32.37;34.85;;
66399;Laerm;54877;51.504;3.894;2023-04-03T01:06:34;33.66;32.25;34.81;;
66399;Laerm;54877;51.504;3.894;2023-04-03T01:09:00;33.71;32.30;34.92;;
66399;Laerm;54877;51.504;3.894;2023-04-03T01:11:26;33.74;32.40;34.90;;
66399;Laerm;54877;51.504;3.894;2023-04-03T01:13:52;33.73;32.33;34.94;;
66399;Laerm;54877;51.504;3.894;2023-04-03T01:16:18;33.72;32.10;34.98;;
66399;Laerm;54877;51.504;3.894;2023-04-03T01:18:45;33.73;32.20;41.30;;
66399;Laerm;54877;51.504;3.894;2023-04-03T01:26:31;33.74;32.21;35.10;;
66399;Laerm;54877;51.504;3.894;2023-04-03T01:28:59;33.76;32.39;34.99;;
66399;Laerm;54877;51.504;3.894;2023-04-03T01:31:26;33.76;32.44;35.03;;
66399;Laerm;54877;51.504;3.894;2023-04-03T01:33:52;33.78;32.49;35.19;;
66399;Laerm;54877;51.504;3.894;2023-04-03T01:36:21;33.80;32.56;35.05;;
66399;Laerm;54877;51.504;3.894;2023-04-03T01:38:48;33.83;32.41;35.16;;
66399;Laerm;54877;51.504;3.894;2023-04-03T01:41:13;33.82;32.24;35.25;;
66399;Laerm;54877;51.504;3.894;2023-04-03T01:43:39;33.83;32.41;35.15;;
66399;Laerm;54877;51.504;3.894;2023-04-03T01:46:04;33.82;32.48;34.99;;
66399;Laerm;54877;51.504;3.894;2023-04-03T01:48:29;33.81;32.27;35.22;;
66399;Laerm;54877;51.504;3.894;2023-04-03T01:50:55;33.85;32.42;35.24;;
66399;Laerm;54877;51.504;3.894;2023-04-03T01:53:20;33.81;32.49;35.22;;
66399;Laerm;54877;51.504;3.894;2023-04-03T01:55:46;33.80;32.47;35.04;;
66399;Laerm;54877;51.504;3.894;2023-04-03T01:58:11;33.81;32.40;35.13;;
66399;Laerm;54877;51.504;3.894;2023-04-03T02:00:36;33.83;31.96;35.00;;
66399;Laerm;54877;51.504;3.894;2023-04-03T02:03:03;33.87;32.56;35.24;;
66399;Laerm;54877;51.504;3.894;2023-04-03T02:05:28;33.94;32.59;36.13;;
66399;Laerm;54877;51.504;3.894;2023-04-03T02:07:53;36.55;32.29;51.55;;
66399;Laerm;54877;51.504;3.894;2023-04-03T02:10:19;35.77;32.58;51.58;;
66399;Laerm;54877;51.504;3.894;2023-04-03T02:12:44;33.83;32.39;35.00;;
66399;Laerm;54877;51.504;3.894;2023-04-03T02:15:10;33.82;32.44;34.97;;
66399;Laerm;54877;51.504;3.894;2023-04-03T02:17:36;33.82;32.64;35.07;;
66399;Laerm;54877;51.504;3.894;2023-04-03T02:20:01;33.78;32.36;35.06;;
66399;Laerm;54877;51.504;3.894;2023-04-03T02:22:28;33.78;32.34;35.48;;
66399;Laerm;54877;51.504;3.894;2023-04-03T02:24:53;33.76;32.33;34.92;;
66399;Laerm;54877;51.504;3.894;2023-04-03T02:27:18;33.77;32.46;35.06;;
66399;Laerm;54877;51.504;3.894;2023-04-03T02:29:44;33.78;32.41;37.41;;
66399;Laerm;54877;51.504;3.894;2023-04-03T02:32:09;33.79;32.21;44.10;;
66399;Laerm;54877;51.504;3.894;2023-04-03T02:34:34;33.79;32.36;35.13;;
66399;Laerm;54877;51.504;3.894;2023-04-03T02:37:00;33.75;32.15;35.09;;
66399;Laerm;54877;51.504;3.894;2023-04-03T02:39:25;33.81;32.43;45.18;;
66399;Laerm;54877;51.504;3.894;2023-04-03T02:41:51;33.72;31.61;35.28;;
66399;Laerm;54877;51.504;3.894;2023-04-03T02:44:16;33.69;32.47;34.92;;
66399;Laerm;54877;51.504;3.894;2023-04-03T02:46:41;33.68;32.39;35.24;;
66399;Laerm;54877;51.504;3.894;2023-04-03T02:49:07;33.66;32.34;35.00;;
66399;Laerm;54877;51.504;3.894;2023-04-03T02:51:32;37.86;32.32;54.84;;
66399;Laerm;54877;51.504;3.894;2023-04-03T02:53:58;33.64;32.37;34.83;;
66399;Laerm;54877;51.504;3.894;2023-04-03T02:56:23;33.63;32.31;34.95;;
66399;Laerm;54877;51.504;3.894;2023-04-03T02:58:48;33.63;32.08;34.91;;
66399;Laerm;54877;51.504;3.894;2023-04-03T03:01:14;33.63;32.35;34.96;;
66399;Laerm;54877;51.504;3.894;2023-04-03T03:03:40;33.64;32.22;35.41;;
66399;Laerm;54877;51.504;3.894;2023-04-03T03:06:08;33.64;32.38;34.89;;
66399;Laerm;54877;51.504;3.894;2023-04-03T03:08:35;33.60;31.90;35.21;;
66399;Laerm;54877;51.504;3.894;2023-04-03T03:11:00;33.63;32.13;35.03;;
66399;Laerm;54877;51.504;3.894;2023-04-03T03:13:26;33.64;32.38;34.89;;
66399;Laerm;54877;51.504;3.894;2023-04-03T03:15:51;33.66;32.36;34.89;;
66399;Laerm;54877;51.504;3.894;2023-04-03T03:18:17;33.84;32.15;39.70;;
66399;Laerm;54877;51.504;3.894;2023-04-03T03:20:42;33.72;32.18;37.66;;
66399;Laerm;54877;51.504;3.894;2023-04-03T03:23:08;33.81;32.40;39.80;;
66399;Laerm;54877;51.504;3.894;2023-04-03T03:25:38;33.65;32.38;34.99;;
66399;Laerm;54877;51.504;3.894;2023-04-03T03:28:03;33.65;32.34;34.81;;
66399;Laerm;54877;51.504;3.894;2023-04-03T03:30:29;33.64;32.26;35.01;;
66399;Laerm;54877;51.504;3.894;2023-04-03T03:32:54;33.65;32.19;34.82;;
66399;Laerm;54877;51.504;3.894;2023-04-03T03:35:19;33.94;32.39;37.52;;
66399;Laerm;54877;51.504;3.894;2023-04-03T03:37:45;33.69;32.31;35.20;;
66399;Laerm;54877;51.504;3.894;2023-04-03T03:40:11;33.66;32.02;35.07;;
66399;Laerm;54877;51.504;3.894;2023-04-03T03:42:38;33.72;32.35;37.87;;
66399;Laerm;54877;51.504;3.894;2023-04-03T03:45:04;34.09;32.39;41.70;;
66399;Laerm;54877;51.504;3.894;2023-04-03T03:47:29;33.68;32.17;34.99;;
66399;Laerm;54877;51.504;3.894;2023-04-03T03:49:55;33.73;32.29;35.05;;
66399;Laerm;54877;51.504;3.894;2023-04-03T03:52:20;33.74;32.41;34.99;;
66399;Laerm;54877;51.504;3.894;2023-04-03T03:54:45;33.74;32.24;34.99;;
66399;Laerm;54877;51.504;3.894;2023-04-03T03:57:11;33.75;32.19;34.96;;
66399;Laerm;54877;51.504;3.894;2023-04-03T03:59:36;33.81;32.37;35.18;;
66399;Laerm;54877;51.504;3.894;2023-04-03T04:02:01;33.80;32.08;35.17;;
66399;Laerm;54877;51.504;3.894;2023-04-03T04:04:27;33.78;32.39;36.53;;
66399;Laerm;54877;51.504;3.894;2023-04-03T04:06:52;33.86;32.55;35.45;;
66399;Laerm;54877;51.504;3.894;2023-04-03T04:09:17;33.88;32.62;35.39;;
66399;Laerm;54877;51.504;3.894;2023-04-03T04:11:43;33.93;32.60;36.14;;
66399;Laerm;54877;51.504;3.894;2023-04-03T04:14:08;33.95;32.47;38.01;;
66399;Laerm;54877;51.504;3.894;2023-04-03T04:16:35;33.96;32.52;35.75;;
66399;Laerm;54877;51.504;3.894;2023-04-03T04:19:00;34.01;32.64;35.25;;
66399;Laerm;54877;51.504;3.894;2023-04-03T04:21:26;34.38;32.48;43.20;;
66399;Laerm;54877;51.504;3.894;2023-04-03T04:23:51;33.97;32.57;35.41;;
66399;Laerm;54877;51.504;3.894;2023-04-03T04:26:17;34.12;32.73;35.78;;
66399;Laerm;54877;51.504;3.894;2023-04-03T04:28:42;34.23;32.57;38.25;;
66399;Laerm;54877;51.504;3.894;2023-04-03T04:31:07;35.26;32.78;43.90;;
66399;Laerm;54877;51.504;3.894;2023-04-03T04:33:33;41.40;32.58;61.60;;
66399;Laerm;54877;51.504;3.894;2023-04-03T04:35:58;34.34;32.78;36.89;;
66399;Laerm;54877;51.504;3.894;2023-04-03T04:38:24;34.37;32.59;40.57;;
66399;Laerm;54877;51.504;3.894;2023-04-03T04:40:49;35.00;32.57;41.55;;
66399;Laerm;54877;51.504;3.894;2023-04-03T04:43:15;38.73;33.14;55.04;;
66399;Laerm;54877;51.504;3.894;2023-04-03T04:45:41;34.41;32.91;36.43;;
66399;Laerm;54877;51.504;3.894;2023-04-03T04:48:07;34.56;32.77;40.69;;
66399;Laerm;54877;51.504;3.894;2023-04-03T04:50:32;35.18;32.76;42.93;;
66399;Laerm;54877;51.504;3.894;2023-04-03T04:52:57;42.77;33.22;63.70;;
66399;Laerm;54877;51.504;3.894;2023-04-03T04:55:23;38.20;32.89;52.79;;
66399;Laerm;54877;51.504;3.894;2023-04-03T04:57:48;38.76;34.98;51.89;;
66399;Laerm;54877;51.504;3.894;2023-04-03T05:00:14;42.11;32.81;58.04;;
66399;Laerm;54877;51.504;3.894;2023-04-03T05:02:40;34.61;32.91;44.67;;
66399;Laerm;54877;51.504;3.894;2023-04-03T05:05:06;34.60;32.90;41.69;;
66399;Laerm;54877;51.504;3.894;2023-04-03T05:07:31;34.70;33.12;41.38;;
66399;Laerm;54877;51.504;3.894;2023-04-03T05:09:56;46.28;32.88;61.23;;
66399;Laerm;54877;51.504;3.894;2023-04-03T05:12:22;35.97;32.96;53.62;;
66399;Laerm;54877;51.504;3.894;2023-04-03T05:14:47;44.13;33.19;65.31;;
66399;Laerm;54877;51.504;3.894;2023-04-03T05:17:12;43.43;32.99;64.18;;
66399;Laerm;54877;51.504;3.894;2023-04-03T05:19:38;34.45;33.04;36.41;;
66399;Laerm;54877;51.504;3.894;2023-04-03T05:22:03;43.80;32.94;63.60;;
66399;Laerm;54877;51.504;3.894;2023-04-03T05:24:28;35.53;32.95;48.95;;
66399;Laerm;54877;51.504;3.894;2023-04-03T05:26:54;40.85;32.98;57.45;;
66399;Laerm;54877;51.504;3.894;2023-04-03T05:29:19;40.42;32.67;57.19;;
66399;Laerm;54877;51.504;3.894;2023-04-03T05:31:45;34.87;33.09;45.04;;
66399;Laerm;54877;51.504;3.894;2023-04-03T05:34:10;41.76;32.94;60.31;;
66399;Laerm;54877;51.504;3.894;2023-04-03T05:36:35;35.29;33.21;44.25;;
66399;Laerm;54877;51.504;3.894;2023-04-03T05:39:01;43.19;33.13;59.44;;
66399;Laerm;54877;51.504;3.894;2023-04-03T05:41:26;35.06;33.13;40.32;;
66399;Laerm;54877;51.504;3.894;2023-04-03T05:43:51;39.70;33.09;56.21;;
66399;Laerm;54877;51.504;3.894;2023-04-03T05:46:19;39.23;33.03;56.74;;
66399;Laerm;54877;51.504;3.894;2023-04-03T05:48:45;43.50;32.84;61.39;;
66399;Laerm;54877;51.504;3.894;2023-04-03T05:51:23;44.21;32.57;63.74;;
66399;Laerm;54877;51.504;3.894;2023-04-03T05:53:52;45.18;32.76;61.87;;
66399;Laerm;54877;51.504;3.894;2023-04-03T05:56:21;35.21;32.42;46.46;;
66399;Laerm;54877;51.504;3.894;2023-04-03T05:58:46;41.97;32.24;60.25;;
66399;Laerm;54877;51.504;3.894;2023-04-03T06:01:11;42.35;32.60;61.58;;
66399;Laerm;54877;51.504;3.894;2023-04-03T06:03:37;36.74;32.70;48.76;;
66399;Laerm;54877;51.504;3.894;2023-04-03T06:06:04;47.14;32.97;61.68;;
66399;Laerm;54877;51.504;3.894;2023-04-03T06:08:29;46.37;32.55;66.72;;
66399;Laerm;54877;51.504;3.894;2023-04-03T06:10:55;37.65;32.77;68.80;;
66399;Laerm;54877;51.504;3.894;2023-04-03T06:13:21;40.95;32.85;61.13;;
66399;Laerm;54877;51.504;3.894;2023-04-03T06:15:47;46.10;33.14;64.81;;
66399;Laerm;54877;51.504;3.894;2023-04-03T06:18:12;37.75;32.86;48.84;;
66399;Laerm;54877;51.504;3.894;2023-04-03T06:20:37;48.68;32.82;65.67;;
66399;Laerm;54877;51.504;3.894;2023-04-03T06:23:03;42.71;32.83;59.38;;
66399;Laerm;54877;51.504;3.894;2023-04-03T06:25:28;44.26;33.14;63.45;;
66399;Laerm;54877;51.504;3.894;2023-04-03T06:27:54;46.87;32.83;61.13;;
66399;Laerm;54877;51.504;3.894;2023-04-03T06:30:20;49.08;33.92;65.74;;
66399;Laerm;54877;51.504;3.894;2023-04-03T06:32:46;41.09;33.92;58.37;;
66399;Laerm;54877;51.504;3.894;2023-04-03T06:35:11;46.97;33.77;62.35;;
66399;Laerm;54877;51.504;3.894;2023-04-03T06:37:36;38.04;32.78;61.71;;
66399;Laerm;54877;51.504;3.894;2023-04-03T06:40:02;49.03;32.95;61.71;;
66399;Laerm;54877;51.504;3.894;2023-04-03T06:42:28;43.00;32.36;63.23;;
66399;Laerm;54877;51.504;3.894;2023-04-03T06:44:53;42.55;32.77;62.04;;
66399;Laerm;54877;51.504;3.894;2023-04-03T06:47:18;43.77;33.23;60.88;;
66399;Laerm;54877;51.504;3.894;2023-04-03T06:49:44;35.55;32.92;43.33;;
66399;Laerm;54877;51.504;3.894;2023-04-03T06:52:09;39.80;32.78;57.84;;
66399;Laerm;54877;51.504;3.894;2023-04-03T06:54:37;43.19;33.31;61.27;;
66399;Laerm;54877;51.504;3.894;2023-04-03T06:57:03;35.84;32.89;52.06;;
66399;Laerm;54877;51.504;3.894;2023-04-03T06:59:28;36.27;33.02;56.68;;
66399;Laerm;54877;51.504;3.894;2023-04-03T07:01:53;36.00;33.36;53.08;;
66399;Laerm;54877;51.504;3.894;2023-04-03T07:04:19;35.95;32.82;47.41;;
66399;Laerm;54877;51.504;3.894;2023-04-03T07:06:46;39.97;33.93;57.23;;
66399;Laerm;54877;51.504;3.894;2023-04-03T07:09:12;35.92;33.06;52.67;;
66399;Laerm;54877;51.504;3.894;2023-04-03T07:11:37;35.90;33.08;43.37;;
66399;Laerm;54877;51.504;3.894;2023-04-03T07:14:03;40.33;33.05;56.63;;
66399;Laerm;54877;51.504;3.894;2023-04-03T07:16:28;40.95;32.70;58.25;;
66399;Laerm;54877;51.504;3.894;2023-04-03T07:18:56;38.21;33.00;58.53;;
66399;Laerm;54877;51.504;3.894;2023-04-03T07:21:22;36.56;33.04;55.39;;
66399;Laerm;54877;51.504;3.894;2023-04-03T07:23:47;37.23;33.74;51.83;;
66399;Laerm;54877;51.504;3.894;2023-04-03T07:26:13;41.09;32.65;56.15;;
66399;Laerm;54877;51.504;3.894;2023-04-03T07:28:39;35.45;32.53;51.71;;
66399;Laerm;54877;51.504;3.894;2023-04-03T07:31:10;40.20;32.32;66.75;;
66399;Laerm;54877;51.504;3.894;2023-04-03T07:33:38;41.21;32.45;58.22;;
66399;Laerm;54877;51.504;3.894;2023-04-03T07:36:04;41.70;32.37;60.45;;
66399;Laerm;54877;51.504;3.894;2023-04-03T07:38:32;45.77;32.03;62.29;;
66399;Laerm;54877;51.504;3.894;2023-04-03T07:40:58;34.79;32.14;48.68;;
66399;Laerm;54877;51.504;3.894;2023-04-03T07:43:23;36.31;32.41;50.13;;
66399;Laerm;54877;51.504;3.894;2023-04-03T07:45:50;33.92;32.19;50.22;;
66399;Laerm;54877;51.504;3.894;2023-04-03T07:48:20;34.73;32.51;52.11;;
66399;Laerm;54877;51.504;3.894;2023-04-03T07:50:46;35.41;32.44;41.18;;
66399;Laerm;54877;51.504;3.894;2023-04-03T07:53:11;45.33;33.08;66.52;;
66399;Laerm;54877;51.504;3.894;2023-04-03T07:55:37;45.01;33.34;64.21;;
66399;Laerm;54877;51.504;3.894;2023-04-03T07:58:09;39.17;33.91;60.48;;
66399;Laerm;54877;51.504;3.894;2023-04-03T08:00:35;43.56;32.98;61.03;;
66399;Laerm;54877;51.504;3.894;2023-04-03T08:03:01;36.68;32.76;51.97;;
66399;Laerm;54877;51.504;3.894;2023-04-03T08:05:26;36.01;33.78;47.93;;
66399;Laerm;54877;51.504;3.894;2023-04-03T08:07:51;39.34;33.47;56.61;;
66399;Laerm;54877;51.504;3.894;2023-04-03T08:10:17;35.92;33.54;51.71;;
66399;Laerm;54877;51.504;3.894;2023-04-03T08:12:45;48.54;34.00;65.10;;
66399;Laerm;54877;51.504;3.894;2023-04-03T08:15:11;35.79;33.12;54.17;;
66399;Laerm;54877;51.504;3.894;2023-04-03T08:17:36;40.83;33.25;57.82;;
66399;Laerm;54877;51.504;3.894;2023-04-03T08:20:04;36.47;33.12;51.13;;
66399;Laerm;54877;51.504;3.894;2023-04-03T08:22:30;39.84;33.77;54.84;;
66399;Laerm;54877;51.504;3.894;2023-04-03T08:24:55;42.94;34.20;59.34;;
66399;Laerm;54877;51.504;3.894;2023-04-03T08:27:21;41.90;34.11;61.36;;
66399;Laerm;54877;51.504;3.894;2023-04-03T08:29:47;35.86;33.37;46.37;;
66399;Laerm;54877;51.504;3.894;2023-04-03T08:32:12;38.20;34.21;55.01;;
66399;Laerm;54877;51.504;3.894;2023-04-03T08:34:37;37.59;33.65;61.52;;
66399;Laerm;54877;51.504;3.894;2023-04-03T08:37:04;36.35;33.64;54.34;;
66399;Laerm;54877;51.504;3.894;2023-04-03T08:39:30;37.28;33.62;51.78;;
66399;Laerm;54877;51.504;3.894;2023-04-03T08:41:58;40.64;33.47;53.43;;
66399;Laerm;54877;51.504;3.894;2023-04-03T08:47:20;37.14;33.56;55.96;;
66399;Laerm;54877;51.504;3.894;2023-04-03T08:52:19;36.67;33.36;56.78;;
66399;Laerm;54877;51.504;3.894;2023-04-03T08:54:53;37.91;33.16;59.12;;
66399;Laerm;54877;51.504;3.894;2023-04-03T08:57:34;44.17;33.62;63.74;;
66399;Laerm;54877;51.504;3.894;2023-04-03T09:00:09;37.46;33.64;55.76;;
66399;Laerm;54877;51.504;3.894;2023-04-03T09:02:44;36.97;33.35;55.30;;
66399;Laerm;54877;51.504;3.894;2023-04-03T09:05:17;36.98;33.04;53.53;;
66399;Laerm;54877;51.504;3.894;2023-04-03T09:07:49;42.64;33.75;61.15;;
66399;Laerm;54877;51.504;3.894;2023-04-03T09:10:24;43.18;34.01;59.61;;
66399;Laerm;54877;51.504;3.894;2023-04-03T09:13:03;41.51;34.02;65.39;;
66399;Laerm;54877;51.504;3.894;2023-04-03T09:15:32;37.35;33.86;59.35;;
66399;Laerm;54877;51.504;3.894;2023-04-03T09:18:06;37.18;33.77;53.86;;
66399;Laerm;54877;51.504;3.894;2023-04-03T09:23:18;40.66;33.83;54.81;;
66399;Laerm;54877;51.504;3.894;2023-04-03T09:25:45;37.33;34.68;59.01;;
66399;Laerm;54877;51.504;3.894;2023-04-03T09:28:11;41.38;34.42;59.18;;
66399;Laerm;54877;51.504;3.894;2023-04-03T09:30:37;37.93;34.97;57.63;;
66399;Laerm;54877;51.504;3.894;2023-04-03T09:33:04;38.96;34.90;58.97;;
66399;Laerm;54877;51.504;3.894;2023-04-03T09:35:31;37.60;34.70;54.10;;
66399;Laerm;54877;51.504;3.894;2023-04-03T09:40:37;37.77;34.90;55.01;;
66399;Laerm;54877;51.504;3.894;2023-04-03T09:43:23;38.52;34.88;58.53;;
66399;Laerm;54877;51.504;3.894;2023-04-03T09:45:50;40.36;34.42;56.83;;
66399;Laerm;54877;51.504;3.894;2023-04-03T09:48:22;38.93;34.80;58.91;;
66399;Laerm;54877;51.504;3.894;2023-04-03T09:55:56;39.99;35.07;60.30;;
66399;Laerm;54877;51.504;3.894;2023-04-03T09:59:12;45.24;34.99;63.92;;
66399;Laerm;54877;51.504;3.894;2023-04-03T10:04:12;43.09;34.35;60.57;;
66399;Laerm;54877;51.504;3.894;2023-04-03T10:06:40;38.04;34.62;57.81;;
66399;Laerm;54877;51.504;3.894;2023-04-03T10:12:07;38.47;34.49;55.93;;
66399;Laerm;54877;51.504;3.894;2023-04-03T10:14:39;46.94;34.54;71.16;;
66399;Laerm;54877;51.504;3.894;2023-04-03T10:20:25;46.15;34.69;68.77;;
66399;Laerm;54877;51.504;3.894;2023-04-03T10:23:17;49.45;34.92;75.84;;
66399;Laerm;54877;51.504;3.894;2023-04-03T10:47:45;36.97;34.51;51.39;;
66399;Laerm;54877;51.504;3.894;2023-04-03T10:50:39;37.37;34.59;55.24;;
66399;Laerm;54877;51.504;3.894;2023-04-03T10:56:48;44.61;34.80;63.86;;
66399;Laerm;54877;51.504;3.894;2023-04-03T10:58:55;40.18;34.46;56.81;;
66399;Laerm;54877;51.504;3.894;2023-04-03T11:01:26;36.78;34.36;53.13;;
66399;Laerm;54877;51.504;3.894;2023-04-03T11:03:58;37.91;34.46;54.49;;
66399;Laerm;54877;51.504;3.894;2023-04-03T11:06:27;39.38;34.32;56.78;;
66399;Laerm;54877;51.504;3.894;2023-04-03T11:09:18;46.04;34.56;63.76;;
66399;Laerm;54877;51.504;3.894;2023-04-03T11:11:46;40.77;34.66;58.01;;
66399;Laerm;54877;51.504;3.894;2023-04-03T11:14:34;45.92;36.78;62.38;;
66399;Laerm;54877;51.504;3.894;2023-04-03T11:20:05;44.98;35.88;63.93;;
66399;Laerm;54877;51.504;3.894;2023-04-03T11:22:34;39.63;36.63;51.02;;
66399;Laerm;54877;51.504;3.894;2023-04-03T11:25:13;47.28;36.82;64.25;;
66399;Laerm;54877;51.504;3.894;2023-04-03T11:27:45;40.22;35.02;58.11;;
66399;Laerm;54877;51.504;3.894;2023-04-03T11:30:22;40.33;34.82;57.32;;
66399;Laerm;54877;51.504;3.894;2023-04-03T11:35:17;37.50;34.75;55.13;;
66399;Laerm;54877;51.504;3.894;2023-04-03T11:37:56;41.01;34.64;55.65;;
66399;Laerm;54877;51.504;3.894;2023-04-03T11:40:26;43.37;34.78;60.64;;
66399;Laerm;54877;51.504;3.894;2023-04-03T11:43:27;39.46;34.81;54.76;;
66399;Laerm;54877;51.504;3.894;2023-04-03T11:51:00;40.49;34.88;57.46;;
66399;Laerm;54877;51.504;3.894;2023-04-03T11:53:34;42.43;34.87;60.77;;
66399;Laerm;54877;51.504;3.894;2023-04-03T11:56:04;46.57;34.77;63.58;;
66399;Laerm;54877;51.504;3.894;2023-04-03T11:58:31;44.66;34.89;62.76;;
66399;Laerm;54877;51.504;3.894;2023-04-03T12:01:08;37.06;34.80;50.32;;
66399;Laerm;54877;51.504;3.894;2023-04-03T12:13:37;44.77;35.50;61.21;;
66399;Laerm;54877;51.504;3.894;2023-04-03T12:16:07;42.61;35.58;64.90;;
66399;Laerm;54877;51.504;3.894;2023-04-03T12:21:22;42.06;35.48;66.10;;
66399;Laerm;54877;51.504;3.894;2023-04-03T12:27:04;47.20;35.57;65.22;;
66399;Laerm;54877;51.504;3.894;2023-04-03T12:40:05;40.30;35.11;58.19;;
66399;Laerm;54877;51.504;3.894;2023-04-03T12:42:56;44.38;34.92;64.29;;
66399;Laerm;54877;51.504;3.894;2023-04-03T12:45:25;39.12;34.94;55.40;;
66399;Laerm;54877;51.504;3.894;2023-04-03T12:47:54;47.52;35.06;65.22;;
66399;Laerm;54877;51.504;3.894;2023-04-03T12:50:31;43.25;35.00;64.85;;
66399;Laerm;54877;51.504;3.894;2023-04-03T12:53:04;42.93;35.30;61.33;;
66399;Laerm;54877;51.504;3.894;2023-04-03T12:55:30;43.30;35.23;61.32;;
66399;Laerm;54877;51.504;3.894;2023-04-03T12:57:55;38.74;35.02;59.45;;
66399;Laerm;54877;51.504;3.894;2023-04-03T13:00:35;39.47;34.96;57.07;;
66399;Laerm;54877;51.504;3.894;2023-04-03T13:03:05;46.10;35.02;71.76;;
66399;Laerm;54877;51.504;3.894;2023-04-03T13:05:32;39.80;35.02;58.32;;
66399;Laerm;54877;51.504;3.894;2023-04-03T13:08:00;38.52;35.06;58.44;;
66399;Laerm;54877;51.504;3.894;2023-04-03T13:10:29;39.14;35.24;61.60;;
66399;Laerm;54877;51.504;3.894;2023-04-03T13:13:09;41.31;35.13;66.37;;
66399;Laerm;54877;51.504;3.894;2023-04-03T13:15:44;45.22;35.34;64.09;;
66399;Laerm;54877;51.504;3.894;2023-04-03T13:18:30;38.95;34.81;58.45;;
66399;Laerm;54877;51.504;3.894;2023-04-03T13:21:17;37.40;34.54;58.67;;
66399;Laerm;54877;51.504;3.894;2023-04-03T13:23:47;43.05;35.54;63.96;;
66399;Laerm;54877;51.504;3.894;2023-04-03T13:26:17;41.11;34.88;61.87;;
66399;Laerm;54877;51.504;3.894;2023-04-03T13:28:44;46.68;34.88;63.40;;
66399;Laerm;54877;51.504;3.894;2023-04-03T13:33:43;48.95;34.55;67.60;;
66399;Laerm;54877;51.504;3.894;2023-04-03T13:36:20;47.14;34.90;68.34;;
66399;Laerm;54877;51.504;3.894;2023-04-03T13:38:46;46.89;34.91;66.95;;
66399;Laerm;54877;51.504;3.894;2023-04-03T13:41:34;42.40;34.48;60.64;;
66399;Laerm;54877;51.504;3.894;2023-04-03T13:46:44;44.14;34.69;61.19;;
66399;Laerm;54877;51.504;3.894;2023-04-03T13:49:19;37.91;34.55;56.88;;
66399;Laerm;54877;51.504;3.894;2023-04-03T13:51:48;40.06;34.87;61.16;;
66399;Laerm;54877;51.504;3.894;2023-04-03T13:54:35;38.09;34.79;54.09;;
66399;Laerm;54877;51.504;3.894;2023-04-03T13:57:02;44.66;34.76;61.27;;
66399;Laerm;54877;51.504;3.894;2023-04-03T13:59:34;38.75;34.67;62.24;;
66399;Laerm;54877;51.504;3.894;2023-04-03T14:04:43;41.33;35.75;57.54;;
66399;Laerm;54877;51.504;3.894;2023-04-03T14:07:10;47.18;35.38;66.81;;
66399;Laerm;54877;51.504;3.894;2023-04-03T14:09:36;45.80;35.20;63.39;;
66399;Laerm;54877;51.504;3.894;2023-04-03T14:12:08;45.49;35.50;63.40;;
66399;Laerm;54877;51.504;3.894;2023-04-03T14:14:37;39.32;35.26;55.32;;
66399;Laerm;54877;51.504;3.894;2023-04-03T14:17:14;41.88;35.35;55.06;;
66399;Laerm;54877;51.504;3.894;2023-04-03T14:19:40;43.12;35.27;60.52;;
66399;Laerm;54877;51.504;3.894;2023-04-03T14:22:32;39.42;35.51;59.88;;
66399;Laerm;54877;51.504;3.894;2023-04-03T14:24:59;47.16;35.39;65.43;;
66399;Laerm;54877;51.504;3.894;2023-04-03T14:27:33;43.35;35.26;69.81;;
66399;Laerm;54877;51.504;3.894;2023-04-03T14:29:59;39.45;35.03;59.93;;
66399;Laerm;54877;51.504;3.894;2023-04-03T14:32:25;41.88;35.08;64.69;;
66399;Laerm;54877;51.504;3.894;2023-04-03T14:34:52;40.87;34.73;67.42;;
66399;Laerm;54877;51.504;3.894;2023-04-03T14:37:21;42.18;34.75;63.50;;
66399;Laerm;54877;51.504;3.894;2023-04-03T14:39:48;45.31;34.96;63.36;;
66399;Laerm;54877;51.504;3.894;2023-04-03T14:42:17;38.42;34.54;62.67;;
66399;Laerm;54877;51.504;3.894;2023-04-03T14:44:43;43.01;34.53;65.45;;
66399;Laerm;54877;51.504;3.894;2023-04-03T14:47:16;46.35;34.91;65.87;;
66399;Laerm;54877;51.504;3.894;2023-04-03T14:49:42;42.89;35.04;69.19;;
66399;Laerm;54877;51.504;3.894;2023-04-03T14:52:19;46.98;34.80;66.88;;
66399;Laerm;54877;51.504;3.894;2023-04-03T14:54:44;44.34;34.71;61.77;;
66399;Laerm;54877;51.504;3.894;2023-04-03T14:57:13;45.99;34.79;64.22;;
66399;Laerm;54877;51.504;3.894;2023-04-03T14:59:39;48.31;34.53;65.57;;
66399;Laerm;54877;51.504;3.894;2023-04-03T15:02:30;43.62;34.94;63.91;;
66399;Laerm;54877;51.504;3.894;2023-04-03T15:04:57;45.33;34.76;60.14;;
66399;Laerm;54877;51.504;3.894;2023-04-03T15:07:24;46.28;34.95;61.74;;
66399;Laerm;54877;51.504;3.894;2023-04-03T15:09:50;44.27;34.72;64.06;;
66399;Laerm;54877;51.504;3.894;2023-04-03T15:12:16;43.50;34.61;63.26;;
66399;Laerm;54877;51.504;3.894;2023-04-03T15:14:41;41.09;34.66;60.29;;
66399;Laerm;54877;51.504;3.894;2023-04-03T15:17:15;39.97;34.84;52.46;;
66399;Laerm;54877;51.504;3.894;2023-04-03T15:19:41;40.87;34.73;58.50;;
66399;Laerm;54877;51.504;3.894;2023-04-03T15:22:12;43.14;35.06;58.85;;
66399;Laerm;54877;51.504;3.894;2023-04-03T15:24:38;48.99;34.81;65.53;;
66399;Laerm;54877;51.504;3.894;2023-04-03T15:27:04;46.27;35.36;64.11;;
66399;Laerm;54877;51.504;3.894;2023-04-03T15:29:29;45.40;35.43;63.89;;
66399;Laerm;54877;51.504;3.894;2023-04-03T15:31:55;44.39;34.87;63.31;;